Blue Mound, Illinois
Current Conditions -  °F | °C
As of 3:55 AM on Friday 31 Oct 2014 (Local Time) from KTAZ Reporting Station
Overcast Overcast  
Wind Chill: 40°   Ceiling: 9000
Heat Index: 43°   Visibility: 7mi
Dew Point: 41°   Wind: 5mph
Humidity: 93%   Direction: 330°NNW
Pressure: 30.08"   Gusts: NA
Location:  39.7°N, 89.12°W
Report Text: KTAZ 310855Z AUTO 33004KT 7SM SCT070 BKN090 OVC110 06/05 A3008 RMK AO2
Loading
Personal Weather Stations






























Interactive Weather Map
Tropical Storm Tracking
New forecast layout! Learn more

10-Day Weather Forecast

Advertisements
Track Severe Weather on mobile